sensor_id;sensor_type;location;lat;lon;timestamp;temperature;humidity
30097;DHT22;16915;51.466;3.610;2023-06-26T00:02:15;21.40;99.90
30097;DHT22;16915;51.466;3.610;2023-06-26T00:04:42;21.40;99.90
30097;DHT22;16915;51.466;3.610;2023-06-26T00:07:08;21.40;99.90
30097;DHT22;16915;51.466;3.610;2023-06-26T00:09:34;21.30;99.90
30097;DHT22;16915;51.466;3.610;2023-06-26T00:11:59;21.30;99.90
30097;DHT22;16915;51.466;3.610;2023-06-26T00:14:25;21.20;99.90
30097;DHT22;16915;51.466;3.610;2023-06-26T00:16:51;21.20;99.90
30097;DHT22;16915;51.466;3.610;2023-06-26T00:19:17;21.10;99.90
30097;DHT22;16915;51.466;3.610;2023-06-26T00:21:43;21.10;99.90
30097;DHT22;16915;51.466;3.610;2023-06-26T00:24:16;21.10;99.90
30097;DHT22;16915;51.466;3.610;2023-06-26T00:26:42;21.10;99.90
30097;DHT22;16915;51.466;3.610;2023-06-26T00:29:07;21.00;99.90
30097;DHT22;16915;51.466;3.610;2023-06-26T00:31:33;21.00;99.90
30097;DHT22;16915;51.466;3.610;2023-06-26T00:34:00;20.90;99.90
30097;DHT22;16915;51.466;3.610;2023-06-26T00:36:26;20.90;99.90
30097;DHT22;16915;51.466;3.610;2023-06-26T00:38:52;20.80;99.90
30097;DHT22;16915;51.466;3.610;2023-06-26T00:41:18;20.80;99.90
30097;DHT22;16915;51.466;3.610;2023-06-26T00:43:43;20.80;99.90
30097;DHT22;16915;51.466;3.610;2023-06-26T00:46:10;20.80;99.90
30097;DHT22;16915;51.466;3.610;2023-06-26T00:48:38;20.70;99.90
30097;DHT22;16915;51.466;3.610;2023-06-26T00:51:04;20.70;99.90
30097;DHT22;16915;51.466;3.610;2023-06-26T00:53:31;20.80;99.90
30097;DHT22;16915;51.466;3.610;2023-06-26T00:55:56;20.80;99.90
30097;DHT22;16915;51.466;3.610;2023-06-26T00:58:24;20.70;99.90
30097;DHT22;16915;51.466;3.610;2023-06-26T01:00:51;20.70;99.90
30097;DHT22;16915;51.466;3.610;2023-06-26T01:03:17;20.60;99.90
30097;DHT22;16915;51.466;3.610;2023-06-26T01:05:42;20.60;99.90
30097;DHT22;16915;51.466;3.610;2023-06-26T01:08:12;20.60;99.90
30097;DHT22;16915;51.466;3.610;2023-06-26T01:10:39;20.50;99.90
30097;DHT22;16915;51.466;3.610;2023-06-26T01:13:05;20.50;99.90
30097;DHT22;16915;51.466;3.610;2023-06-26T01:15:31;20.50;99.90
30097;DHT22;16915;51.466;3.610;2023-06-26T01:17:57;20.50;99.90
30097;DHT22;16915;51.466;3.610;2023-06-26T01:20:30;20.50;99.90
30097;DHT22;16915;51.466;3.610;2023-06-26T01:23:14;20.40;99.90
30097;DHT22;16915;51.466;3.610;2023-06-26T01:28:34;20.30;99.90
30097;DHT22;16915;51.466;3.610;2023-06-26T01:31:02;20.30;99.90
30097;DHT22;16915;51.466;3.610;2023-06-26T01:33:28;20.30;99.90
30097;DHT22;16915;51.466;3.610;2023-06-26T01:35:54;20.20;99.90
30097;DHT22;16915;51.466;3.610;2023-06-26T01:38:21;20.20;99.90
30097;DHT22;16915;51.466;3.610;2023-06-26T01:40:50;20.20;99.90
30097;DHT22;16915;51.466;3.610;2023-06-26T01:45:50;20.10;99.90
30097;DHT22;16915;51.466;3.610;2023-06-26T01:48:22;20.00;99.90
30097;DHT22;16915;51.466;3.610;2023-06-26T01:50:51;20.00;99.90
30097;DHT22;16915;51.466;3.610;2023-06-26T01:53:21;20.10;99.90
30097;DHT22;16915;51.466;3.610;2023-06-26T01:58:14;20.10;99.90
30097;DHT22;16915;51.466;3.610;2023-06-26T02:00:42;20.10;99.90
30097;DHT22;16915;51.466;3.610;2023-06-26T02:03:08;20.10;99.90
30097;DHT22;16915;51.466;3.610;2023-06-26T02:05:33;20.00;99.90
30097;DHT22;16915;51.466;3.610;2023-06-26T02:07:59;20.00;99.90
30097;DHT22;16915;51.466;3.610;2023-06-26T02:10:26;20.00;99.90
30097;DHT22;16915;51.466;3.610;2023-06-26T02:12:52;20.00;99.90
30097;DHT22;16915;51.466;3.610;2023-06-26T02:15:17;20.00;99.90
30097;DHT22;16915;51.466;3.610;2023-06-26T02:17:43;19.90;99.90
30097;DHT22;16915;51.466;3.610;2023-06-26T02:20:13;19.80;99.90
30097;DHT22;16915;51.466;3.610;2023-06-26T02:22:39;19.80;99.90
30097;DHT22;16915;51.466;3.610;2023-06-26T02:25:05;19.70;99.90
30097;DHT22;16915;51.466;3.610;2023-06-26T02:27:31;19.60;99.90
30097;DHT22;16915;51.466;3.610;2023-06-26T02:29:56;19.60;99.90
30097;DHT22;16915;51.466;3.610;2023-06-26T02:32:24;19.60;99.90
30097;DHT22;16915;51.466;3.610;2023-06-26T02:34:50;19.50;99.90
30097;DHT22;16915;51.466;3.610;2023-06-26T02:37:17;19.50;99.90
30097;DHT22;16915;51.466;3.610;2023-06-26T02:39:43;19.50;99.90
30097;DHT22;16915;51.466;3.610;2023-06-26T02:42:08;19.50;99.90
30097;DHT22;16915;51.466;3.610;2023-06-26T02:44:34;19.50;99.90
30097;DHT22;16915;51.466;3.610;2023-06-26T02:47:00;19.40;99.90
30097;DHT22;16915;51.466;3.610;2023-06-26T02:49:25;19.40;99.90
30097;DHT22;16915;51.466;3.610;2023-06-26T02:51:51;19.40;99.90
30097;DHT22;16915;51.466;3.610;2023-06-26T02:54:16;19.30;99.90
30097;DHT22;16915;51.466;3.610;2023-06-26T02:56:42;19.30;99.90
30097;DHT22;16915;51.466;3.610;2023-06-26T02:59:08;19.30;99.90
30097;DHT22;16915;51.466;3.610;2023-06-26T03:01:33;19.20;99.90
30097;DHT22;16915;51.466;3.610;2023-06-26T03:03:59;19.20;99.90
30097;DHT22;16915;51.466;3.610;2023-06-26T03:06:26;19.10;99.90
30097;DHT22;16915;51.466;3.610;2023-06-26T03:08:53;19.10;99.90
30097;DHT22;16915;51.466;3.610;2023-06-26T03:11:18;19.10;99.90
30097;DHT22;16915;51.466;3.610;2023-06-26T03:13:44;19.00;99.90
30097;DHT22;16915;51.466;3.610;2023-06-26T03:16:10;19.00;99.90
30097;DHT22;16915;51.466;3.610;2023-06-26T03:18:35;19.00;99.90
30097;DHT22;16915;51.466;3.610;2023-06-26T03:21:01;19.00;99.90
30097;DHT22;16915;51.466;3.610;2023-06-26T03:23:27;18.90;99.90
30097;DHT22;16915;51.466;3.610;2023-06-26T03:25:53;18.90;99.90
30097;DHT22;16915;51.466;3.610;2023-06-26T03:28:18;18.90;99.90
30097;DHT22;16915;51.466;3.610;2023-06-26T03:30:44;18.80;99.90
30097;DHT22;16915;51.466;3.610;2023-06-26T03:33:10;18.80;99.90
30097;DHT22;16915;51.466;3.610;2023-06-26T03:35:36;18.80;99.90
30097;DHT22;16915;51.466;3.610;2023-06-26T03:38:03;18.70;99.90
30097;DHT22;16915;51.466;3.610;2023-06-26T03:40:29;18.70;99.90
30097;DHT22;16915;51.466;3.610;2023-06-26T03:42:55;18.70;99.90
30097;DHT22;16915;51.466;3.610;2023-06-26T03:45:20;18.60;99.90
30097;DHT22;16915;51.466;3.610;2023-06-26T03:47:46;18.60;99.90
30097;DHT22;16915;51.466;3.610;2023-06-26T03:50:18;18.60;99.90
30097;DHT22;16915;51.466;3.610;2023-06-26T03:52:44;18.60;99.90
30097;DHT22;16915;51.466;3.610;2023-06-26T03:55:10;18.50;99.90
30097;DHT22;16915;51.466;3.610;2023-06-26T03:57:36;18.50;99.90
30097;DHT22;16915;51.466;3.610;2023-06-26T04:00:02;18.50;99.90
30097;DHT22;16915;51.466;3.610;2023-06-26T04:02:33;18.50;99.90
30097;DHT22;16915;51.466;3.610;2023-06-26T04:04:59;18.60;99.90
30097;DHT22;16915;51.466;3.610;2023-06-26T04:07:25;18.50;99.90
30097;DHT22;16915;51.466;3.610;2023-06-26T04:09:51;18.60;99.90
30097;DHT22;16915;51.466;3.610;2023-06-26T04:12:16;18.70;99.90
30097;DHT22;16915;51.466;3.610;2023-06-26T04:14:42;18.70;99.90
30097;DHT22;16915;51.466;3.610;2023-06-26T04:17:08;18.80;99.90
30097;DHT22;16915;51.466;3.610;2023-06-26T04:19:33;18.80;99.90
30097;DHT22;16915;51.466;3.610;2023-06-26T04:22:01;18.80;99.90
30097;DHT22;16915;51.466;3.610;2023-06-26T04:24:26;18.90;99.90
30097;DHT22;16915;51.466;3.610;2023-06-26T04:26:52;18.80;99.90
30097;DHT22;16915;51.466;3.610;2023-06-26T04:29:18;18.90;99.90
30097;DHT22;16915;51.466;3.610;2023-06-26T04:31:43;18.90;99.90
30097;DHT22;16915;51.466;3.610;2023-06-26T04:34:12;18.90;99.90
30097;DHT22;16915;51.466;3.610;2023-06-26T04:36:38;19.00;99.90
30097;DHT22;16915;51.466;3.610;2023-06-26T04:39:04;19.10;99.90
30097;DHT22;16915;51.466;3.610;2023-06-26T04:41:30;19.20;99.90
30097;DHT22;16915;51.466;3.610;2023-06-26T04:43:56;19.20;99.90
30097;DHT22;16915;51.466;3.610;2023-06-26T04:46:21;19.20;99.90
30097;DHT22;16915;51.466;3.610;2023-06-26T04:48:47;19.40;99.90
30097;DHT22;16915;51.466;3.610;2023-06-26T04:51:12;19.40;99.90
30097;DHT22;16915;51.466;3.610;2023-06-26T04:53:38;19.50;99.90
30097;DHT22;16915;51.466;3.610;2023-06-26T04:56:04;19.50;99.90
30097;DHT22;16915;51.466;3.610;2023-06-26T04:58:30;19.60;99.90
30097;DHT22;16915;51.466;3.610;2023-06-26T05:00:55;19.80;99.90
30097;DHT22;16915;51.466;3.610;2023-06-26T05:03:22;19.90;99.90
30097;DHT22;16915;51.466;3.610;2023-06-26T05:05:47;20.00;99.90
30097;DHT22;16915;51.466;3.610;2023-06-26T05:08:18;20.10;99.90
30097;DHT22;16915;51.466;3.610;2023-06-26T05:10:44;20.10;99.90
30097;DHT22;16915;51.466;3.610;2023-06-26T05:13:10;19.90;99.90
30097;DHT22;16915;51.466;3.610;2023-06-26T05:15:36;19.90;99.90
30097;DHT22;16915;51.466;3.610;2023-06-26T05:18:02;19.80;99.90
30097;DHT22;16915;51.466;3.610;2023-06-26T05:20:28;19.70;99.90
30097;DHT22;16915;51.466;3.610;2023-06-26T05:22:54;19.50;99.90
30097;DHT22;16915;51.466;3.610;2023-06-26T05:25:20;19.50;99.90
30097;DHT22;16915;51.466;3.610;2023-06-26T05:27:47;19.60;99.90
30097;DHT22;16915;51.466;3.610;2023-06-26T05:30:13;19.60;99.90
30097;DHT22;16915;51.466;3.610;2023-06-26T05:32:40;19.80;99.90
30097;DHT22;16915;51.466;3.610;2023-06-26T05:35:06;20.10;99.90
30097;DHT22;16915;51.466;3.610;2023-06-26T05:37:33;20.20;99.90
30097;DHT22;16915;51.466;3.610;2023-06-26T05:40:00;20.40;99.90
30097;DHT22;16915;51.466;3.610;2023-06-26T05:42:27;20.40;99.90
30097;DHT22;16915;51.466;3.610;2023-06-26T05:44:53;20.30;99.90
30097;DHT22;16915;51.466;3.610;2023-06-26T05:47:19;20.20;99.90
30097;DHT22;16915;51.466;3.610;2023-06-26T05:49:45;20.30;99.90
30097;DHT22;16915;51.466;3.610;2023-06-26T05:52:11;20.40;99.90
30097;DHT22;16915;51.466;3.610;2023-06-26T05:54:37;20.60;99.90
30097;DHT22;16915;51.466;3.610;2023-06-26T05:57:03;20.70;99.90
30097;DHT22;16915;51.466;3.610;2023-06-26T05:59:31;20.90;99.90
30097;DHT22;16915;51.466;3.610;2023-06-26T06:01:57;21.00;99.90
30097;DHT22;16915;51.466;3.610;2023-06-26T06:04:22;21.00;99.90
30097;DHT22;16915;51.466;3.610;2023-06-26T06:06:48;20.90;99.90
30097;DHT22;16915;51.466;3.610;2023-06-26T06:09:13;20.90;99.90
30097;DHT22;16915;51.466;3.610;2023-06-26T06:11:39;20.90;99.90
30097;DHT22;16915;51.466;3.610;2023-06-26T06:14:04;20.90;99.90
30097;DHT22;16915;51.466;3.610;2023-06-26T06:16:30;20.90;99.90
30097;DHT22;16915;51.466;3.610;2023-06-26T06:18:56;20.90;99.90
30097;DHT22;16915;51.466;3.610;2023-06-26T06:21:21;20.90;99.90
30097;DHT22;16915;51.466;3.610;2023-06-26T06:23:47;21.00;99.90
30097;DHT22;16915;51.466;3.610;2023-06-26T06:26:12;21.00;99.90
30097;DHT22;16915;51.466;3.610;2023-06-26T06:28:39;21.00;99.90
30097;DHT22;16915;51.466;3.610;2023-06-26T06:31:05;21.10;99.90
30097;DHT22;16915;51.466;3.610;2023-06-26T06:33:30;21.10;99.90
30097;DHT22;16915;51.466;3.610;2023-06-26T06:35:56;21.10;99.90
30097;DHT22;16915;51.466;3.610;2023-06-26T06:38:22;21.20;99.90
30097;DHT22;16915;51.466;3.610;2023-06-26T06:40:48;21.20;99.90
30097;DHT22;16915;51.466;3.610;2023-06-26T06:43:13;21.20;99.90
30097;DHT22;16915;51.466;3.610;2023-06-26T06:45:39;21.30;99.90
30097;DHT22;16915;51.466;3.610;2023-06-26T06:48:05;21.30;99.90
30097;DHT22;16915;51.466;3.610;2023-06-26T06:50:31;21.20;99.90
30097;DHT22;16915;51.466;3.610;2023-06-26T06:52:56;21.20;99.90
30097;DHT22;16915;51.466;3.610;2023-06-26T06:55:22;21.20;99.90
30097;DHT22;16915;51.466;3.610;2023-06-26T06:57:49;21.20;99.90
30097;DHT22;16915;51.466;3.610;2023-06-26T07:00:15;21.30;99.90
30097;DHT22;16915;51.466;3.610;2023-06-26T07:02:45;21.30;99.90
30097;DHT22;16915;51.466;3.610;2023-06-26T07:05:12;21.30;99.90
30097;DHT22;16915;51.466;3.610;2023-06-26T07:07:38;21.40;99.90
30097;DHT22;16915;51.466;3.610;2023-06-26T07:12:31;21.40;99.90
30097;DHT22;16915;51.466;3.610;2023-06-26T07:14:57;21.50;99.90
30097;DHT22;16915;51.466;3.610;2023-06-26T07:17:23;21.60;99.90
30097;DHT22;16915;51.466;3.610;2023-06-26T07:19:49;21.50;99.90
30097;DHT22;16915;51.466;3.610;2023-06-26T07:22:15;21.50;99.90
30097;DHT22;16915;51.466;3.610;2023-06-26T07:24:41;21.60;99.90
30097;DHT22;16915;51.466;3.610;2023-06-26T07:27:06;21.50;99.90
30097;DHT22;16915;51.466;3.610;2023-06-26T07:29:32;21.50;99.90
30097;DHT22;16915;51.466;3.610;2023-06-26T07:31:58;21.60;99.90
30097;DHT22;16915;51.466;3.610;2023-06-26T07:34:24;21.60;99.90
30097;DHT22;16915;51.466;3.610;2023-06-26T07:36:49;21.60;99.90
30097;DHT22;16915;51.466;3.610;2023-06-26T07:39:15;21.60;99.90
30097;DHT22;16915;51.466;3.610;2023-06-26T07:41:40;21.60;99.90
30097;DHT22;16915;51.466;3.610;2023-06-26T07:44:06;21.80;99.90
30097;DHT22;16915;51.466;3.610;2023-06-26T07:46:32;21.70;99.90
30097;DHT22;16915;51.466;3.610;2023-06-26T07:48:57;21.70;99.90
30097;DHT22;16915;51.466;3.610;2023-06-26T07:51:23;21.70;99.90
30097;DHT22;16915;51.466;3.610;2023-06-26T07:53:49;21.80;99.90
30097;DHT22;16915;51.466;3.610;2023-06-26T07:56:15;21.80;99.90
30097;DHT22;16915;51.466;3.610;2023-06-26T07:58:40;21.80;99.90
30097;DHT22;16915;51.466;3.610;2023-06-26T08:01:06;21.80;99.90
30097;DHT22;16915;51.466;3.610;2023-06-26T08:03:31;21.80;99.90
30097;DHT22;16915;51.466;3.610;2023-06-26T08:05:57;21.90;99.90
30097;DHT22;16915;51.466;3.610;2023-06-26T08:08:22;22.10;99.90
30097;DHT22;16915;51.466;3.610;2023-06-26T08:10:48;22.20;99.90
30097;DHT22;16915;51.466;3.610;2023-06-26T08:13:13;22.40;99.90
30097;DHT22;16915;51.466;3.610;2023-06-26T08:15:39;22.40;99.90
30097;DHT22;16915;51.466;3.610;2023-06-26T08:18:05;22.40;99.90
30097;DHT22;16915;51.466;3.610;2023-06-26T08:20:30;22.50;99.90
30097;DHT22;16915;51.466;3.610;2023-06-26T08:22:56;22.70;99.90
30097;DHT22;16915;51.466;3.610;2023-06-26T08:25:21;22.80;99.90
30097;DHT22;16915;51.466;3.610;2023-06-26T08:27:47;22.70;99.90
30097;DHT22;16915;51.466;3.610;2023-06-26T08:30:13;22.70;99.90
30097;DHT22;16915;51.466;3.610;2023-06-26T08:32:39;22.70;99.90
30097;DHT22;16915;51.466;3.610;2023-06-26T08:35:06;22.70;99.90
30097;DHT22;16915;51.466;3.610;2023-06-26T08:37:32;22.70;99.90
30097;DHT22;16915;51.466;3.610;2023-06-26T08:40:01;22.70;99.90
30097;DHT22;16915;51.466;3.610;2023-06-26T08:42:27;22.60;99.90
30097;DHT22;16915;51.466;3.610;2023-06-26T08:44:53;22.70;99.90
30097;DHT22;16915;51.466;3.610;2023-06-26T08:47:18;22.70;99.90
30097;DHT22;16915;51.466;3.610;2023-06-26T08:52:24;22.60;99.90
30097;DHT22;16915;51.466;3.610;2023-06-26T08:54:58;22.70;99.90
30097;DHT22;16915;51.466;3.610;2023-06-26T08:57:25;22.90;99.90
30097;DHT22;16915;51.466;3.610;2023-06-26T08:59:52;23.00;99.90
30097;DHT22;16915;51.466;3.610;2023-06-26T09:02:18;23.00;99.90
30097;DHT22;16915;51.466;3.610;2023-06-26T09:04:47;23.00;99.90
30097;DHT22;16915;51.466;3.610;2023-06-26T09:07:13;23.00;99.90
30097;DHT22;16915;51.466;3.610;2023-06-26T09:09:39;23.20;99.90
30097;DHT22;16915;51.466;3.610;2023-06-26T09:12:04;23.30;99.90
30097;DHT22;16915;51.466;3.610;2023-06-26T09:14:30;23.30;99.90
30097;DHT22;16915;51.466;3.610;2023-06-26T09:16:56;23.20;99.90
30097;DHT22;16915;51.466;3.610;2023-06-26T09:19:21;23.30;99.90
30097;DHT22;16915;51.466;3.610;2023-06-26T09:21:49;23.40;99.90
30097;DHT22;16915;51.466;3.610;2023-06-26T09:24:16;23.60;99.90
30097;DHT22;16915;51.466;3.610;2023-06-26T09:26:42;23.70;99.90
30097;DHT22;16915;51.466;3.610;2023-06-26T09:29:09;23.80;99.90
30097;DHT22;16915;51.466;3.610;2023-06-26T09:31:38;23.90;99.90
30097;DHT22;16915;51.466;3.610;2023-06-26T09:34:05;23.80;99.90
30097;DHT22;16915;51.466;3.610;2023-06-26T09:36:31;23.80;99.90
30097;DHT22;16915;51.466;3.610;2023-06-26T09:39:05;23.90;99.90
30097;DHT22;16915;51.466;3.610;2023-06-26T09:41:36;24.00;99.90
30097;DHT22;16915;51.466;3.610;2023-06-26T09:44:05;23.90;99.90
30097;DHT22;16915;51.466;3.610;2023-06-26T09:46:31;23.90;99.90
30097;DHT22;16915;51.466;3.610;2023-06-26T09:49:03;24.00;99.90
30097;DHT22;16915;51.466;3.610;2023-06-26T09:51:34;24.10;99.90
30097;DHT22;16915;51.466;3.610;2023-06-26T09:54:00;24.20;99.90
30097;DHT22;16915;51.466;3.610;2023-06-26T09:56:27;24.30;99.90
30097;DHT22;16915;51.466;3.610;2023-06-26T09:58:55;24.30;99.90
30097;DHT22;16915;51.466;3.610;2023-06-26T10:01:23;24.30;99.90
30097;DHT22;16915;51.466;3.610;2023-06-26T10:03:48;24.30;99.90
30097;DHT22;16915;51.466;3.610;2023-06-26T10:06:15;24.30;99.90
30097;DHT22;16915;51.466;3.610;2023-06-26T10:08:42;24.50;99.90
30097;DHT22;16915;51.466;3.610;2023-06-26T10:11:14;24.20;99.90
30097;DHT22;16915;51.466;3.610;2023-06-26T10:13:43;24.30;99.90
30097;DHT22;16915;51.466;3.610;2023-06-26T10:16:12;24.00;99.90
30097;DHT22;16915;51.466;3.610;2023-06-26T10:18:39;24.10;99.90
30097;DHT22;16915;51.466;3.610;2023-06-26T10:21:05;24.10;99.90
30097;DHT22;16915;51.466;3.610;2023-06-26T10:23:33;23.90;99.90
30097;DHT22;16915;51.466;3.610;2023-06-26T10:26:00;24.10;99.90
30097;DHT22;16915;51.466;3.610;2023-06-26T10:28:28;24.40;99.90
30097;DHT22;16915;51.466;3.610;2023-06-26T10:30:55;24.80;99.90
30097;DHT22;16915;51.466;3.610;2023-06-26T10:33:22;25.10;99.90
30097;DHT22;16915;51.466;3.610;2023-06-26T10:35:48;25.30;99.90
30097;DHT22;16915;51.466;3.610;2023-06-26T10:38:14;25.30;99.90
30097;DHT22;16915;51.466;3.610;2023-06-26T10:40:47;25.30;99.90
30097;DHT22;16915;51.466;3.610;2023-06-26T10:43:16;25.70;99.90
30097;DHT22;16915;51.466;3.610;2023-06-26T10:45:45;26.00;99.90
30097;DHT22;16915;51.466;3.610;2023-06-26T10:48:14;26.20;99.90
30097;DHT22;16915;51.466;3.610;2023-06-26T10:50:40;26.40;99.90
30097;DHT22;16915;51.466;3.610;2023-06-26T10:55:59;27.20;99.90
30097;DHT22;16915;51.466;3.610;2023-06-26T10:58:41;27.10;99.90
30097;DHT22;16915;51.466;3.610;2023-06-26T11:01:17;26.90;99.90
30097;DHT22;16915;51.466;3.610;2023-06-26T11:03:45;26.50;99.90
30097;DHT22;16915;51.466;3.610;2023-06-26T11:06:20;26.20;99.90
30097;DHT22;16915;51.466;3.610;2023-06-26T11:08:53;26.40;99.90
30097;DHT22;16915;51.466;3.610;2023-06-26T11:11:20;26.80;99.90
30097;DHT22;16915;51.466;3.610;2023-06-26T11:13:47;27.30;99.90
30097;DHT22;16915;51.466;3.610;2023-06-26T11:16:14;27.80;99.90
30097;DHT22;16915;51.466;3.610;2023-06-26T11:18:43;27.80;99.90
30097;DHT22;16915;51.466;3.610;2023-06-26T11:21:11;28.20;99.90
30097;DHT22;16915;51.466;3.610;2023-06-26T11:23:40;28.60;99.90
30097;DHT22;16915;51.466;3.610;2023-06-26T11:26:17;28.50;99.90
30097;DHT22;16915;51.466;3.610;2023-06-26T11:28:47;28.40;99.90
30097;DHT22;16915;51.466;3.610;2023-06-26T11:31:30;28.50;99.90
30097;DHT22;16915;51.466;3.610;2023-06-26T11:33:59;28.30;99.90
30097;DHT22;16915;51.466;3.610;2023-06-26T11:36:26;28.40;99.90
30097;DHT22;16915;51.466;3.610;2023-06-26T11:38:58;28.70;99.90
30097;DHT22;16915;51.466;3.610;2023-06-26T11:41:26;29.10;99.90
30097;DHT22;16915;51.466;3.610;2023-06-26T11:43:52;29.40;99.90
30097;DHT22;16915;51.466;3.610;2023-06-26T11:46:18;29.30;99.90
30097;DHT22;16915;51.466;3.610;2023-06-26T11:48:44;29.50;99.90
30097;DHT22;16915;51.466;3.610;2023-06-26T11:51:13;29.90;99.90
30097;DHT22;16915;51.466;3.610;2023-06-26T11:53:41;30.10;99.90
30097;DHT22;16915;51.466;3.610;2023-06-26T11:56:11;30.40;99.90
30097;DHT22;16915;51.466;3.610;2023-06-26T11:58:56;30.30;99.90
30097;DHT22;16915;51.466;3.610;2023-06-26T12:01:22;30.30;99.90
30097;DHT22;16915;51.466;3.610;2023-06-26T12:03:50;30.00;99.40
30097;DHT22;16915;51.466;3.610;2023-06-26T12:06:16;29.70;99.90
30097;DHT22;16915;51.466;3.610;2023-06-26T12:08:42;29.30;99.90
30097;DHT22;16915;51.466;3.610;2023-06-26T12:11:08;28.70;99.90
30097;DHT22;16915;51.466;3.610;2023-06-26T12:13:34;28.40;99.90
30097;DHT22;16915;51.466;3.610;2023-06-26T12:16:00;28.40;99.90
30097;DHT22;16915;51.466;3.610;2023-06-26T12:18:25;28.50;99.90
30097;DHT22;16915;51.466;3.610;2023-06-26T12:20:52;28.70;99.90
30097;DHT22;16915;51.466;3.610;2023-06-26T12:23:17;28.70;99.90
30097;DHT22;16915;51.466;3.610;2023-06-26T12:25:43;28.10;99.90
30097;DHT22;16915;51.466;3.610;2023-06-26T12:28:19;27.80;99.90
30097;DHT22;16915;51.466;3.610;2023-06-26T12:31:20;27.60;99.90
30097;DHT22;16915;51.466;3.610;2023-06-26T12:33:46;27.40;99.90
30097;DHT22;16915;51.466;3.610;2023-06-26T12:36:12;27.40;99.90
30097;DHT22;16915;51.466;3.610;2023-06-26T12:38:38;27.60;99.90
30097;DHT22;16915;51.466;3.610;2023-06-26T12:41:04;28.20;99.90
30097;DHT22;16915;51.466;3.610;2023-06-26T12:43:29;28.30;99.90
30097;DHT22;16915;51.466;3.610;2023-06-26T12:45:55;28.10;99.90
30097;DHT22;16915;51.466;3.610;2023-06-26T12:48:35;28.20;99.90
30097;DHT22;16915;51.466;3.610;2023-06-26T12:51:08;28.80;99.90
30097;DHT22;16915;51.466;3.610;2023-06-26T12:53:34;29.80;99.90
30097;DHT22;16915;51.466;3.610;2023-06-26T12:56:00;30.90;99.90
30097;DHT22;16915;51.466;3.610;2023-06-26T12:58:25;31.40;98.50
30097;DHT22;16915;51.466;3.610;2023-06-26T13:00:51;31.70;97.70
30097;DHT22;16915;51.466;3.610;2023-06-26T13:03:19;32.10;97.20
30097;DHT22;16915;51.466;3.610;2023-06-26T13:05:46;32.70;97.40
30097;DHT22;16915;51.466;3.610;2023-06-26T13:08:12;33.20;96.30
30097;DHT22;16915;51.466;3.610;2023-06-26T13:10:38;33.30;95.80
30097;DHT22;16915;51.466;3.610;2023-06-26T13:13:05;32.90;94.90
30097;DHT22;16915;51.466;3.610;2023-06-26T13:15:30;32.50;95.20
30097;DHT22;16915;51.466;3.610;2023-06-26T13:17:56;32.20;95.40
30097;DHT22;16915;51.466;3.610;2023-06-26T13:20:21;32.40;94.60
30097;DHT22;16915;51.466;3.610;2023-06-26T13:22:47;32.90;94.50
30097;DHT22;16915;51.466;3.610;2023-06-26T13:25:13;32.90;94.10
30097;DHT22;16915;51.466;3.610;2023-06-26T13:27:38;33.00;94.50
30097;DHT22;16915;51.466;3.610;2023-06-26T13:30:04;33.40;92.90
30097;DHT22;16915;51.466;3.610;2023-06-26T13:32:30;33.40;93.00
30097;DHT22;16915;51.466;3.610;2023-06-26T13:34:56;33.40;93.60
30097;DHT22;16915;51.466;3.610;2023-06-26T13:37:22;33.90;92.80
30097;DHT22;16915;51.466;3.610;2023-06-26T13:39:48;34.40;91.20
30097;DHT22;16915;51.466;3.610;2023-06-26T13:42:16;34.40;91.40
30097;DHT22;16915;51.466;3.610;2023-06-26T13:44:42;34.20;90.00
30097;DHT22;16915;51.466;3.610;2023-06-26T13:47:07;33.90;90.50
30097;DHT22;16915;51.466;3.610;2023-06-26T13:49:33;33.60;91.30
30097;DHT22;16915;51.466;3.610;2023-06-26T13:51:59;33.20;91.30
30097;DHT22;16915;51.466;3.610;2023-06-26T13:54:24;33.60;90.50
30097;DHT22;16915;51.466;3.610;2023-06-26T13:56:50;34.00;89.70
30097;DHT22;16915;51.466;3.610;2023-06-26T13:59:15;34.10;90.70
30097;DHT22;16915;51.466;3.610;2023-06-26T14:01:41;34.40;89.50
30097;DHT22;16915;51.466;3.610;2023-06-26T14:04:09;34.80;87.50
30097;DHT22;16915;51.466;3.610;2023-06-26T14:06:34;35.00;85.90
30097;DHT22;16915;51.466;3.610;2023-06-26T14:09:00;34.50;86.00
30097;DHT22;16915;51.466;3.610;2023-06-26T14:11:26;34.40;85.30
30097;DHT22;16915;51.466;3.610;2023-06-26T14:13:51;34.40;85.90
30097;DHT22;16915;51.466;3.610;2023-06-26T14:16:17;34.40;86.70
30097;DHT22;16915;51.466;3.610;2023-06-26T14:18:44;34.40;87.30
30097;DHT22;16915;51.466;3.610;2023-06-26T14:21:09;34.70;84.40
30097;DHT22;16915;51.466;3.610;2023-06-26T14:23:35;34.80;85.00
30097;DHT22;16915;51.466;3.610;2023-06-26T14:26:01;34.50;85.40
30097;DHT22;16915;51.466;3.610;2023-06-26T14:28:26;34.90;88.10
30097;DHT22;16915;51.466;3.610;2023-06-26T14:30:52;35.50;82.70
30097;DHT22;16915;51.466;3.610;2023-06-26T14:33:17;36.00;84.20
30097;DHT22;16915;51.466;3.610;2023-06-26T14:35:43;36.00;82.00
30097;DHT22;16915;51.466;3.610;2023-06-26T14:38:08;35.30;81.90
30097;DHT22;16915;51.466;3.610;2023-06-26T14:40:34;35.10;82.30
30097;DHT22;16915;51.466;3.610;2023-06-26T14:43:00;34.20;80.50
30097;DHT22;16915;51.466;3.610;2023-06-26T14:45:25;32.90;81.10
30097;DHT22;16915;51.466;3.610;2023-06-26T14:47:51;31.80;83.60
30097;DHT22;16915;51.466;3.610;2023-06-26T14:50:16;30.60;87.20
30097;DHT22;16915;51.466;3.610;2023-06-26T14:52:42;29.80;88.70
30097;DHT22;16915;51.466;3.610;2023-06-26T14:55:08;29.20;91.90
30097;DHT22;16915;51.466;3.610;2023-06-26T14:57:34;29.20;92.60
30097;DHT22;16915;51.466;3.610;2023-06-26T14:59:59;29.20;93.20
30097;DHT22;16915;51.466;3.610;2023-06-26T15:02:25;29.40;93.60
30097;DHT22;16915;51.466;3.610;2023-06-26T15:04:51;29.30;93.70
30097;DHT22;16915;51.466;3.610;2023-06-26T15:07:16;29.20;93.10
30097;DHT22;16915;51.466;3.610;2023-06-26T15:09:42;29.10;93.40
30097;DHT22;16915;51.466;3.610;2023-06-26T15:12:07;28.50;94.00
30097;DHT22;16915;51.466;3.610;2023-06-26T15:14:33;28.20;94.30
30097;DHT22;16915;51.466;3.610;2023-06-26T15:16:59;28.30;94.90
30097;DHT22;16915;51.466;3.610;2023-06-26T15:19:24;28.60;94.90
30097;DHT22;16915;51.466;3.610;2023-06-26T15:21:50;28.80;94.40
30097;DHT22;16915;51.466;3.610;2023-06-26T15:24:15;28.80;93.30
30097;DHT22;16915;51.466;3.610;2023-06-26T15:26:41;28.40;92.90
30097;DHT22;16915;51.466;3.610;2023-06-26T15:29:07;28.50;94.00
30097;DHT22;16915;51.466;3.610;2023-06-26T15:31:32;29.10;93.60
30097;DHT22;16915;51.466;3.610;2023-06-26T15:33:58;29.90;93.60
30097;DHT22;16915;51.466;3.610;2023-06-26T15:36:23;31.00;92.60
30097;DHT22;16915;51.466;3.610;2023-06-26T15:38:49;31.60;90.40
30097;DHT22;16915;51.466;3.610;2023-06-26T15:41:15;32.00;90.30
30097;DHT22;16915;51.466;3.610;2023-06-26T15:43:40;32.30;89.50